Time;durP1;ratioP1;P1;durP2;ratioP2;P2;SDS_P1;SDS_P2;PMS_P1;PMS_P2;Temp;Humidity;BMP_temperature;BMP_pressure;BME280_temperature;BME280_humidity;BME280_pressure;Samples;Min_cycle;Max_cycle;Signal;HPM_P1;HPM_P2
2024/01/03 00:00:00;;;;;;;0.52;0.52;;;8.00;1.00;;;;;;5095628;28;20501;-86
2024/01/03 00:02:26;;;;;;;0.00;0.00;;;8.00;1.00;;;;;;5072051;28;20056;-86
2024/01/03 00:04:52;;;;;;;0.80;0.75;;;7.90;99.90;;;;;;5098253;28;20047;-85
2024/01/03 00:07:17;;;;;;;0.00;0.00;;;7.90;1.00;;;;;;5083998;28;20059;-86
2024/01/03 00:09:43;;;;;;;0.00;0.00;;;7.90;99.90;;;;;;5081223;28;20036;-86
2024/01/03 00:12:13;;;;;;;0.00;0.00;;;7.90;99.90;;;;;;5069557;28;20498;-85
2024/01/03 00:14:39;;;;;;;0.00;0.00;;;7.90;99.90;;;;;;5094313;28;20051;-85
2024/01/03 00:17:05;;;;;;;0.00;0.00;;;7.90;99.90;;;;;;5095315;28;20481;-86
2024/01/03 00:19:35;;;;;;;0.00;0.00;;;7.90;99.90;;;;;;5093974;28;20050;-87
2024/01/03 00:22:01;;;;;;;0.00;0.00;;;7.90;1.00;;;;;;5072866;28;20533;-86
2024/01/03 00:24:28;;;;;;;0.00;0.00;;;7.90;1.00;;;;;;5074941;28;20040;-86
2024/01/03 00:26:53;;;;;;;0.98;0.65;;;7.80;25.60;;;;;;5067321;28;20056;-85
2024/01/03 00:29:22;;;;;;;0.08;0.08;;;7.90;99.90;;;;;;5096699;28;20058;-86
2024/01/03 00:31:48;;;;;;;0.00;0.00;;;7.80;99.90;;;;;;5070610;28;20610;-85
2024/01/03 00:34:23;;;;;;;3.35;0.95;;;8.20;99.90;;;;;;5095341;28;20097;-85
2024/01/03 00:36:50;;;;;;;0.00;0.00;;;7.80;99.90;;;;;;5069354;28;20054;-86
2024/01/03 00:39:26;;;;;;;0.90;0.90;;;7.80;99.90;;;;;;5098371;28;20039;-85
2024/01/03 00:41:52;;;;;;;;;;;7.80;20.00;;;;;;5103782;28;20050;-86
2024/01/03 00:44:18;;;;;;;0.00;0.00;;;7.80;1.00;;;;;;5068686;28;19923;-85
2024/01/03 00:46:44;;;;;;;0.00;0.00;;;7.70;1.00;;;;;;5103292;28;20039;-85
2024/01/03 00:49:10;;;;;;;0.08;0.08;;;7.70;1.00;;;;;;5098473;28;20451;-86
2024/01/03 00:51:36;;;;;;;0.00;0.00;;;7.70;1.00;;;;;;5098234;28;20356;-85
2024/01/03 00:54:02;;;;;;;0.00;0.00;;;7.70;1.00;;;;;;5075931;28;20098;-86
2024/01/03 00:56:28;;;;;;;0.00;0.00;;;7.70;99.90;;;;;;5087962;28;20040;-86
2024/01/03 00:58:54;;;;;;;0.15;0.15;;;7.70;28.30;;;;;;5098270;28;20036;-86
2024/01/03 01:01:20;;;;;;;0.00;0.00;;;7.70;99.90;;;;;;5073293;28;20113;-86
2024/01/03 01:03:46;;;;;;;0.05;0.05;;;7.70;98.60;;;;;;5100864;28;20087;-86
2024/01/03 01:06:12;;;;;;;0.28;0.22;;;7.70;11.80;;;;;;5107065;28;20051;-87
2024/01/03 01:08:38;;;;;;;0.15;0.15;;;7.70;14.70;;;;;;5095500;28;20051;-87
2024/01/03 01:11:03;;;;;;;0.15;0.15;;;7.60;27.80;;;;;;5086513;28;20039;-87
2024/01/03 01:13:29;;;;;;;0.00;0.00;;;7.60;1.00;;;;;;5095204;28;20123;-87
2024/01/03 01:15:55;;;;;;;0.00;0.00;;;7.60;99.90;;;;;;5091277;28;20435;-87
2024/01/03 01:18:20;;;;;;;0.00;0.00;;;7.60;30.80;;;;;;5071786;28;20052;-87
2024/01/03 01:20:46;;;;;;;0.00;0.00;;;7.60;1.00;;;;;;5085017;28;20040;-87
2024/01/03 01:23:11;;;;;;;0.00;0.00;;;7.70;99.90;;;;;;5079306;28;20072;-88
2024/01/03 01:25:37;;;;;;;0.00;0.00;;;7.60;1.00;;;;;;5088425;28;20091;-87
2024/01/03 01:28:03;;;;;;;0.00;0.00;;;7.60;1.00;;;;;;5068586;28;20040;-87
2024/01/03 01:30:28;;;;;;;0.00;0.00;;;7.60;1.00;;;;;;5093920;28;20548;-87
2024/01/03 01:32:54;;;;;;;0.05;0.05;;;7.60;36.70;;;;;;5074079;28;20148;-87
2024/01/03 01:35:20;;;;;;;0.00;0.00;;;7.60;99.90;;;;;;5073088;28;20105;-87
2024/01/03 01:37:45;;;;;;;0.00;0.00;;;7.60;99.90;;;;;;5095646;28;20165;-86
2024/01/03 01:40:11;;;;;;;0.00;0.00;;;7.60;15.30;;;;;;5095120;28;20520;-86
2024/01/03 01:42:41;;;;;;;0.20;0.20;;;7.60;14.20;;;;;;5083159;28;20051;-86
2024/01/03 01:45:07;;;;;;;0.43;0.35;;;7.60;99.90;;;;;;5085949;28;20446;-87
2024/01/03 01:47:33;;;;;;;0.15;0.15;;;7.60;99.90;;;;;;5092629;28;20047;-86
2024/01/03 01:49:59;;;;;;;2.47;0.88;;;7.60;99.90;;;;;;5098126;28;20123;-86
2024/01/03 01:52:25;;;;;;;1.17;0.77;;;7.60;99.90;;;;;;5071895;28;20469;-87
2024/01/03 01:54:51;;;;;;;0.00;0.00;;;7.60;99.90;;;;;;5083801;28;20048;-86
2024/01/03 01:57:17;;;;;;;7.88;2.15;;;7.60;99.90;;;;;;5070965;28;20128;-87
2024/01/03 01:59:43;;;;;;;0.00;0.00;;;7.60;99.90;;;;;;5092124;28;20622;-86
2024/01/03 02:02:10;;;;;;;0.57;0.25;;;7.60;99.90;;;;;;5067114;28;20060;-87
2024/01/03 02:04:36;;;;;;;0.00;0.00;;;7.60;99.90;;;;;;5067035;28;20123;-87
2024/01/03 02:07:03;;;;;;;1.48;0.75;;;7.60;99.90;;;;;;5085367;28;20383;-87
2024/01/03 02:09:29;;;;;;;0.00;0.00;;;7.70;99.90;;;;;;5066054;28;20052;-87
2024/01/03 02:11:55;;;;;;;0.00;0.00;;;7.70;99.90;;;;;;5098739;28;20062;-87
2024/01/03 02:14:20;;;;;;;0.13;0.13;;;7.70;45.50;;;;;;5086505;28;20589;-87
2024/01/03 02:16:46;;;;;;;2.20;1.88;;;7.70;1.00;;;;;;5088980;28;20511;-87
2024/01/03 02:19:11;;;;;;;0.85;0.65;;;7.70;99.90;;;;;;5089463;28;20511;-87
2024/01/03 02:21:37;;;;;;;0.08;0.08;;;7.70;28.50;;;;;;5054781;28;20044;-87
2024/01/03 02:24:03;;;;;;;0.30;0.28;;;7.70;1.00;;;;;;5074732;28;20066;-87
2024/01/03 02:26:28;;;;;;;0.00;0.00;;;7.70;12.90;;;;;;5081341;28;20040;-87
2024/01/03 02:28:54;;;;;;;0.15;0.10;;;7.70;1.00;;;;;;5074537;28;20173;-87
2024/01/03 02:31:20;;;;;;;0.40;0.40;;;7.70;83.70;;;;;;5100041;28;20055;-87
2024/01/03 02:33:45;;;;;;;0.00;0.00;;;7.80;99.90;;;;;;5097628;28;20094;-86
2024/01/03 02:36:11;;;;;;;0.00;0.00;;;7.70;1.00;;;;;;5095572;28;20047;-86
2024/01/03 02:38:37;;;;;;;0.00;0.00;;;7.70;20.70;;;;;;5093096;28;20100;-86
2024/01/03 02:41:02;;;;;;;0.00;0.00;;;7.70;93.70;;;;;;5091653;28;20036;-86
2024/01/03 02:43:29;;;;;;;0.20;0.20;;;7.70;1.00;;;;;;5085682;28;20400;-86
2024/01/03 02:45:54;;;;;;;0.00;0.00;;;7.70;99.90;;;;;;5095067;28;20068;-86
2024/01/03 02:48:20;;;;;;;0.30;0.30;;;7.80;99.90;;;;;;5098185;28;20052;-86
2024/01/03 02:50:48;;;;;;;0.00;0.00;;;7.80;99.90;;;;;;5093523;28;20044;-86
2024/01/03 02:53:15;;;;;;;0.00;0.00;;;8.00;1.00;;;;;;5080799;28;20048;-86
2024/01/03 02:55:41;;;;;;;0.17;0.10;;;7.90;35.40;;;;;;5065204;28;20051;-86
2024/01/03 02:58:06;;;;;;;0.00;0.00;;;7.90;98.00;;;;;;5090898;28;20047;-86
2024/01/03 03:00:32;;;;;;;1.65;0.98;;;7.90;1.00;;;;;;5075921;28;20048;-86
2024/01/03 03:02:58;;;;;;;0.00;0.00;;;8.00;99.90;;;;;;5081554;28;20064;-86
2024/01/03 03:05:23;;;;;;;0.35;0.22;;;8.00;86.40;;;;;;5103797;28;20123;-85
2024/01/03 03:07:49;;;;;;;4.68;0.30;;;8.10;99.90;;;;;;5069122;28;20067;-86
2024/01/03 03:10:15;;;;;;;0.00;0.00;;;8.00;99.90;;;;;;5083689;28;20515;-85
2024/01/03 03:12:40;;;;;;;0.20;0.20;;;8.10;99.90;;;;;;5085759;28;20446;-86
2024/01/03 03:15:07;;;;;;;0.00;0.00;;;8.10;99.90;;;;;;5065753;28;20097;-85
2024/01/03 03:17:33;;;;;;;0.10;0.10;;;8.10;1.00;;;;;;5103527;28;20039;-86
2024/01/03 03:19:59;;;;;;;2.72;1.48;;;8.10;24.40;;;;;;5094606;28;20572;-85
2024/01/03 03:22:24;;;;;;;1.10;0.60;;;8.20;99.90;;;;;;5100122;28;20466;-85
2024/01/03 03:24:50;;;;;;;0.55;0.52;;;8.30;99.90;;;;;;5065181;28;20095;-86
2024/01/03 03:27:15;;;;;;;1.45;0.75;;;8.30;1.00;;;;;;5092111;28;20044;-86
2024/01/03 03:29:41;;;;;;;0.00;0.00;;;8.90;1.00;;;;;;5097487;28;20046;-85
2024/01/03 03:32:07;;;;;;;0.47;0.47;;;8.30;77.00;;;;;;5098214;28;20040;-85
2024/01/03 03:34:33;;;;;;;0.00;0.00;;;8.20;99.90;;;;;;5074148;28;20052;-85
2024/01/03 03:36:59;;;;;;;0.10;0.10;;;8.20;99.90;;;;;;5089637;28;20109;-86
2024/01/03 03:39:25;;;;;;;1.92;0.15;;;8.30;99.90;;;;;;5093119;28;20497;-85
2024/01/03 03:41:51;;;;;;;0.00;0.00;;;8.30;66.80;;;;;;5063067;28;20044;-85
2024/01/03 03:44:16;;;;;;;0.00;0.00;;;8.40;1.00;;;;;;5077224;28;20043;-85
2024/01/03 03:46:42;;;;;;;0.00;0.00;;;8.50;99.90;;;;;;5091219;28;20072;-85
2024/01/03 03:49:08;;;;;;;3.83;0.43;;;8.50;1.00;;;;;;5063836;28;20092;-85
2024/01/03 03:51:33;;;;;;;0.10;0.10;;;8.40;99.90;;;;;;5047084;28;20524;-85
2024/01/03 03:53:59;;;;;;;0.00;0.00;;;8.40;99.90;;;;;;5063389;28;20048;-85
2024/01/03 03:56:31;;;;;;;0.00;0.00;;;8.20;99.90;;;;;;5091059;28;20122;-85
2024/01/03 03:58:56;;;;;;;0.00;0.00;;;8.20;99.90;;;;;;5098724;28;20052;-85
2024/01/03 04:01:22;;;;;;;0.00;0.00;;;8.10;99.90;;;;;;5099711;28;20056;-85
2024/01/03 04:03:48;;;;;;;0.00;0.00;;;8.10;99.90;;;;;;5097465;28;20130;-85
2024/01/03 04:06:15;;;;;;;0.00;0.00;;;8.00;99.90;;;;;;5071772;28;21143;-85
2024/01/03 04:08:45;;;;;;;0.00;0.00;;;8.00;1.00;;;;;;5092099;28;20052;-85
2024/01/03 04:11:11;;;;;;;0.00;0.00;;;8.00;1.00;;;;;;5096959;28;20500;-85
2024/01/03 04:13:40;;;;;;;0.00;0.00;;;8.70;36.80;;;;;;5063059;28;20920;-85
2024/01/03 04:16:07;;;;;;;0.35;0.35;;;7.90;99.90;;;;;;5093493;28;20505;-85
2024/01/03 04:18:33;;;;;;;0.00;0.00;;;7.80;99.90;;;;;;5084822;28;20081;-86
2024/01/03 04:21:00;;;;;;;4.13;0.32;;;7.90;1.00;;;;;;5102450;28;20075;-87
2024/01/03 04:23:26;;;;;;;0.00;0.00;;;7.80;83.40;;;;;;5068691;28;20097;-88
2024/01/03 04:25:51;;;;;;;2.20;1.55;;;7.70;99.90;;;;;;5068687;28;20054;-87
2024/01/03 04:28:17;;;;;;;0.00;0.00;;;7.80;99.90;;;;;;5104365;28;20051;-87
2024/01/03 04:30:42;;;;;;;5.57;1.25;;;7.80;47.80;;;;;;5094624;28;20409;-87
2024/01/03 04:33:08;;;;;;;0.00;0.00;;;7.90;21.40;;;;;;5067936;28;20102;-87
2024/01/03 04:35:34;;;;;;;0.00;0.00;;;8.00;1.00;;;;;;5051870;28;20508;-87
2024/01/03 04:38:02;;;;;;;0.00;0.00;;;7.90;1.00;;;;;;5068937;28;20048;-87
2024/01/03 04:40:29;;;;;;;0.00;0.00;;;7.90;31.20;;;;;;5068928;28;20055;-87
2024/01/03 04:42:55;;;;;;;0.00;0.00;;;7.90;99.90;;;;;;5067898;28;20047;-87
2024/01/03 04:45:21;;;;;;;0.00;0.00;;;7.80;99.90;;;;;;5067886;28;20105;-86
2024/01/03 04:47:46;;;;;;;0.00;0.00;;;7.90;99.90;;;;;;5088879;28;20044;-87
2024/01/03 04:50:12;;;;;;;0.00;0.00;;;7.90;99.90;;;;;;5107176;28;20047;-87
2024/01/03 04:52:38;;;;;;;1.35;0.52;;;8.20;1.00;;;;;;5079345;28;20093;-86
2024/01/03 04:55:03;;;;;;;0.20;0.20;;;7.90;1.00;;;;;;5093905;28;20043;-86
2024/01/03 04:57:32;;;;;;;0.00;0.00;;;7.90;1.00;;;;;;5072280;28;20513;-86
2024/01/03 04:59:58;;;;;;;0.00;0.00;;;7.90;61.00;;;;;;5094321;28;20044;-86
2024/01/03 05:02:23;;;;;;;0.00;0.00;;;7.90;80.10;;;;;;5059103;28;20053;-86
2024/01/03 05:04:49;;;;;;;0.00;0.00;;;8.30;1.00;;;;;;5046910;28;20401;-86
2024/01/03 05:07:15;;;;;;;0.00;0.00;;;7.90;1.00;;;;;;5063810;28;20055;-86
2024/01/03 05:09:40;;;;;;;0.03;0.03;;;7.90;1.00;;;;;;5065256;28;20044;-86
2024/01/03 05:12:06;;;;;;;0.20;0.20;;;8.00;1.00;;;;;;5065103;28;20044;-86
2024/01/03 05:14:32;;;;;;;0.00;0.00;;;8.00;1.00;;;;;;5064659;28;20052;-86
2024/01/03 05:16:58;;;;;;;0.00;0.00;;;8.00;1.00;;;;;;5065531;28;20063;-86
2024/01/03 05:19:24;;;;;;;0.00;0.00;;;7.90;99.90;;;;;;5065552;28;20040;-86
2024/01/03 05:21:49;;;;;;;0.00;0.00;;;9.20;99.90;;;;;;5065010;28;20048;-86
2024/01/03 05:24:15;;;;;;;0.63;0.55;;;8.00;99.90;;;;;;5064099;28;20040;-88
2024/01/03 05:26:41;;;;;;;0.00;0.00;;;7.90;99.90;;;;;;5053270;28;20045;-87
2024/01/03 05:29:07;;;;;;;1.58;0.65;;;7.90;99.90;;;;;;5064005;28;20053;-87
2024/01/03 05:31:32;;;;;;;0.00;0.00;;;8.00;99.90;;;;;;5063464;28;20473;-87
2024/01/03 05:33:58;;;;;;;0.17;0.17;;;8.00;99.90;;;;;;5065039;28;20045;-87
2024/01/03 05:36:23;;;;;;;0.00;0.00;;;8.00;99.90;;;;;;5065365;28;20517;-86
2024/01/03 05:38:49;;;;;;;0.28;0.28;;;8.00;99.90;;;;;;5065103;28;20051;-86
2024/01/03 05:41:15;;;;;;;0.45;0.43;;;8.60;99.90;;;;;;5045214;28;20044;-87
2024/01/03 05:43:40;;;;;;;0.00;0.00;;;8.10;99.90;;;;;;5050673;28;20205;-87
2024/01/03 05:46:06;;;;;;;0.20;0.20;;;8.10;99.90;;;;;;5063917;28;20294;-88
2024/01/03 05:48:32;;;;;;;0.40;0.40;;;9.50;99.90;;;;;;5064610;28;20052;-88
2024/01/03 05:50:57;;;;;;;0.00;0.00;;;9.20;99.90;;;;;;5063736;28;20036;-88
2024/01/03 05:53:23;;;;;;;2.60;0.22;;;8.20;99.90;;;;;;5063613;28;20094;-88
2024/01/03 05:55:49;;;;;;;0.00;0.00;;;8.20;99.90;;;;;;5064800;28;20052;-88
2024/01/03 05:58:15;;;;;;;0.20;0.20;;;8.30;1.00;;;;;;5065445;28;20540;-88
2024/01/03 06:00:40;;;;;;;14.48;2.30;;;8.20;99.90;;;;;;5063532;28;20552;-88
2024/01/03 06:03:06;;;;;;;0.00;0.00;;;8.10;99.90;;;;;;5063337;28;20087;-88
2024/01/03 06:05:31;;;;;;;1.85;0.50;;;8.10;99.90;;;;;;5063921;28;20040;-88
2024/01/03 06:07:57;;;;;;;0.00;0.00;;;8.10;99.90;;;;;;5046824;28;20094;-88
2024/01/03 06:10:23;;;;;;;0.00;0.00;;;8.10;99.90;;;;;;5076887;28;20461;-88
2024/01/03 06:12:48;;;;;;;0.00;0.00;;;8.10;99.90;;;;;;5085464;28;20051;-88
2024/01/03 06:15:14;;;;;;;0.52;0.52;;;8.10;99.90;;;;;;5085863;28;20079;-88
2024/01/03 06:17:39;;;;;;;6.07;2.50;;;8.10;99.90;;;;;;5084531;28;20048;-88
2024/01/03 06:20:06;;;;;;;1.30;0.60;;;8.20;99.90;;;;;;5069188;28;20051;-88
2024/01/03 06:22:31;;;;;;;1.88;1.35;;;8.20;59.80;;;;;;5065511;28;20056;-88
2024/01/03 06:24:57;;;;;;;1.10;0.88;;;8.20;11.30;;;;;;5065776;28;20048;-87
2024/01/03 06:27:22;;;;;;;0.00;0.00;;;8.20;1.00;;;;;;5063125;28;20092;-88
2024/01/03 06:29:48;;;;;;;3.20;1.65;;;8.20;1.00;;;;;;5064590;28;20045;-88
2024/01/03 06:32:14;;;;;;;0.10;0.10;;;8.20;1.00;;;;;;5064564;28;20059;-88
2024/01/03 06:34:40;;;;;;;0.00;0.00;;;8.20;99.90;;;;;;5066227;28;20418;-88
2024/01/03 06:37:06;;;;;;;0.32;0.20;;;8.20;1.00;;;;;;5063413;28;20052;-88
2024/01/03 06:39:31;;;;;;;0.88;0.60;;;8.20;55.20;;;;;;5074104;28;20082;-88
2024/01/03 06:41:57;;;;;;;0.28;0.28;;;8.10;99.90;;;;;;5082965;28;20043;-89
2024/01/03 06:44:23;;;;;;;0.68;0.68;;;8.10;99.90;;;;;;5084386;28;20052;-89
2024/01/03 06:46:49;;;;;;;0.10;0.10;;;8.10;99.90;;;;;;5082493;28;20516;-88
2024/01/03 06:49:15;;;;;;;0.45;0.35;;;8.10;99.90;;;;;;5082134;28;20048;-88
2024/01/03 06:51:40;;;;;;;1.38;0.57;;;8.10;99.90;;;;;;5075595;28;20055;-88
2024/01/03 06:54:06;;;;;;;1.13;1.02;;;8.10;99.90;;;;;;5058235;28;20108;-87
2024/01/03 06:56:31;;;;;;;0.00;0.00;;;8.10;99.90;;;;;;5043147;28;21003;-88
2024/01/03 06:58:59;;;;;;;0.00;0.00;;;8.10;1.00;;;;;;5060167;28;20051;-87
2024/01/03 07:01:25;;;;;;;0.00;0.00;;;8.10;99.90;;;;;;5067243;28;20146;-88
2024/01/03 07:03:51;;;;;;;0.00;0.00;;;8.10;1.00;;;;;;5064637;28;20173;-88
2024/01/03 07:06:17;;;;;;;1.08;0.85;;;8.00;1.00;;;;;;5064594;28;20051;-88
2024/01/03 07:08:43;;;;;;;0.00;0.00;;;8.00;99.90;;;;;;5064709;28;20127;-88
2024/01/03 07:11:12;;;;;;;0.00;0.00;;;8.00;99.90;;;;;;5064418;28;20564;-88
2024/01/03 07:13:38;;;;;;;0.00;0.00;;;7.90;1.00;;;;;;5083028;28;20105;-88
2024/01/03 07:16:03;;;;;;;0.00;0.00;;;7.90;1.00;;;;;;5064717;28;20046;-88
2024/01/03 07:18:29;;;;;;;1.15;1.05;;;7.80;1.00;;;;;;5083385;28;20135;-88
2024/01/03 07:20:55;;;;;;;0.22;0.22;;;7.90;1.00;;;;;;5083154;28;20494;-89
2024/01/03 07:23:21;;;;;;;0.22;0.22;;;7.80;1.00;;;;;;5083588;28;20090;-89
2024/01/03 07:25:46;;;;;;;1.75;1.35;;;7.90;99.90;;;;;;5065435;28;20084;-88
2024/01/03 07:28:13;;;;;;;0.00;0.00;;;7.90;99.90;;;;;;5064659;28;20061;-88
2024/01/03 07:30:39;;;;;;;0.75;0.38;;;7.90;29.70;;;;;;5082969;28;20132;-88
2024/01/03 07:33:04;;;;;;;0.00;0.00;;;7.90;1.00;;;;;;5082809;28;20127;-88
2024/01/03 07:35:30;;;;;;;0.00;0.00;;;9.00;1.00;;;;;;5064761;28;20101;-87
2024/01/03 07:37:55;;;;;;;0.00;0.00;;;8.00;1.00;;;;;;5083053;28;20549;-88
2024/01/03 07:40:21;;;;;;;1.77;0.15;;;7.90;63.90;;;;;;5083075;28;20509;-87
2024/01/03 07:42:47;;;;;;;0.70;0.55;;;8.00;1.00;;;;;;5083089;28;20052;-88
2024/01/03 07:45:12;;;;;;;28.60;2.92;;;8.00;99.90;;;;;;5083004;28;20402;-87
2024/01/03 07:47:41;;;;;;;1.88;0.98;;;8.10;99.90;;;;;;5090683;28;20058;-88
2024/01/03 07:50:06;;;;;;;0.00;0.00;;;8.10;99.90;;;;;;5082438;28;20062;-88
2024/01/03 07:52:32;;;;;;;0.77;0.77;;;8.20;99.90;;;;;;5082321;28;20490;-87
2024/01/03 07:54:58;;;;;;;0.70;0.65;;;8.20;99.90;;;;;;5082537;28;20036;-87
2024/01/03 07:57:23;;;;;;;13.25;0.80;;;8.20;99.90;;;;;;5082173;28;20536;-87
2024/01/03 07:59:50;;;;;;;1.70;0.85;;;8.20;99.90;;;;;;5068818;28;20571;-88
2024/01/03 08:02:15;;;;;;;0.55;0.55;;;8.20;99.90;;;;;;5082886;28;20060;-88
2024/01/03 08:04:42;;;;;;;0.20;0.20;;;9.40;99.90;;;;;;5081462;28;20432;-87
2024/01/03 08:07:08;;;;;;;0.08;0.08;;;8.20;99.90;;;;;;5062924;28;20075;-87
2024/01/03 08:09:34;;;;;;;30.08;3.83;;;8.20;99.90;;;;;;5075503;28;20044;-87
2024/01/03 08:12:00;;;;;;;9.50;2.47;;;8.30;99.90;;;;;;5080760;28;20050;-87
2024/01/03 08:14:58;;;;;;;0.80;0.80;;;8.30;99.90;;;;;;5081174;28;21067;-87
2024/01/03 08:17:24;;;;;;;0.25;0.20;;;8.20;99.90;;;;;;5047226;28;20383;-87
2024/01/03 08:19:49;;;;;;;0.00;0.00;;;8.90;99.90;;;;;;5060454;28;20047;-87
2024/01/03 08:22:15;;;;;;;0.75;0.30;;;8.10;99.90;;;;;;5087323;28;20484;-87
2024/01/03 08:24:44;;;;;;;0.63;0.38;;;8.20;99.90;;;;;;5048922;28;20106;-87
2024/01/03 08:27:21;;;;;;;8.57;1.88;;;8.20;99.90;;;;;;5029359;28;20056;-87
2024/01/03 08:29:48;;;;;;;0.00;0.00;;;8.30;99.90;;;;;;5082749;28;20101;-88
2024/01/03 08:32:13;;;;;;;0.95;0.88;;;8.30;99.90;;;;;;5101975;28;20052;-89
2024/01/03 08:34:39;;;;;;;0.63;0.60;;;9.40;99.90;;;;;;5102217;28;20448;-88
2024/01/03 08:37:25;;;;;;;1.35;0.63;;;8.20;99.90;;;;;;5085589;28;20491;-88
2024/01/03 08:39:53;;;;;;;0.00;0.00;;;8.20;99.90;;;;;;5063539;28;20524;-89
2024/01/03 08:42:19;;;;;;;0.00;0.00;;;9.20;1.00;;;;;;5066043;28;20148;-89
2024/01/03 08:44:45;;;;;;;0.17;0.13;;;8.70;99.90;;;;;;5086004;28;20063;-89
2024/01/03 08:47:13;;;;;;;0.00;0.00;;;8.90;99.90;;;;;;5067513;28;20464;-89
2024/01/03 08:49:39;;;;;;;0.10;0.10;;;8.10;99.90;;;;;;5068178;28;20284;-89
2024/01/03 08:52:04;;;;;;;0.00;0.00;;;8.10;99.90;;;;;;5068305;28;20040;-89
2024/01/03 08:54:30;;;;;;;0.00;0.00;;;8.10;99.90;;;;;;5086043;28;20474;-89
2024/01/03 08:56:55;;;;;;;0.70;0.57;;;8.10;99.90;;;;;;5066874;28;20036;-89
2024/01/03 08:59:21;;;;;;;4.82;1.70;;;8.10;99.90;;;;;;5066656;28;20055;-88
2024/01/03 09:01:51;;;;;;;1.67;1.08;;;8.20;1.00;;;;;;5066084;28;20493;-88
2024/01/03 09:04:17;;;;;;;0.20;0.10;;;8.20;1.00;;;;;;5085005;28;20401;-88
2024/01/03 09:06:42;;;;;;;0.52;0.52;;;8.20;1.00;;;;;;5085010;28;20055;-88
2024/01/03 09:09:08;;;;;;;1.77;1.15;;;9.20;99.90;;;;;;5050516;28;20063;-88
2024/01/03 09:11:34;;;;;;;0.00;0.00;;;8.20;99.90;;;;;;5066790;28;20044;-88
2024/01/03 09:13:59;;;;;;;0.45;0.45;;;8.20;99.90;;;;;;5066948;28;20119;-88
2024/01/03 09:16:30;;;;;;;0.00;0.00;;;8.20;99.90;;;;;;5066458;28;20052;-88
2024/01/03 09:18:56;;;;;;;0.43;0.38;;;8.20;99.90;;;;;;5049188;28;20052;-88
2024/01/03 09:21:21;;;;;;;0.00;0.00;;;8.20;99.90;;;;;;5089909;28;20098;-88
2024/01/03 09:23:48;;;;;;;0.47;0.47;;;8.20;99.90;;;;;;5065175;28;20035;-88
2024/01/03 09:26:15;;;;;;;0.00;0.00;;;8.20;99.90;;;;;;5064817;28;20073;-88
2024/01/03 09:28:44;;;;;;;0.00;0.00;;;8.10;1.00;;;;;;5062993;28;20084;-88
2024/01/03 09:31:09;;;;;;;1.40;0.98;;;8.10;99.90;;;;;;5082677;28;20675;-88
2024/01/03 09:33:45;;;;;;;0.00;0.00;;;8.20;91.80;;;;;;5082752;28;20130;-88
2024/01/03 09:36:20;;;;;;;3.10;1.35;;;9.30;23.20;;;;;;5082687;28;20044;-88
2024/01/03 09:38:49;;;;;;;0.00;0.00;;;8.20;99.90;;;;;;5083628;28;20179;-87
2024/01/03 09:41:15;;;;;;;0.00;0.00;;;8.30;99.90;;;;;;5064496;28;20055;-88
2024/01/03 09:43:42;;;;;;;0.35;0.35;;;9.30;99.90;;;;;;5082937;28;20445;-87
2024/01/03 09:46:11;;;;;;;0.10;0.10;;;9.10;99.90;;;;;;5082636;28;20104;-87
2024/01/03 09:48:41;;;;;;;4.22;1.38;;;8.30;99.90;;;;;;5083347;28;20417;-87
2024/01/03 09:51:09;;;;;;;0.68;0.40;;;7.10;99.90;;;;;;5103376;28;20047;-88
2024/01/03 09:53:36;;;;;;;0.00;0.00;;;8.40;99.90;;;;;;5101501;28;20615;-88
2024/01/03 09:56:01;;;;;;;0.63;0.55;;;8.40;99.90;;;;;;5102898;28;20047;-88
2024/01/03 09:58:27;;;;;;;1.45;0.52;;;8.50;99.90;;;;;;5102544;28;20413;-87
2024/01/03 10:00:53;;;;;;;0.00;0.00;;;9.70;1.00;;;;;;5074990;28;20055;-87
2024/01/03 10:03:19;;;;;;;0.17;0.17;;;8.60;1.00;;;;;;5082313;28;20194;-87
2024/01/03 10:05:49;;;;;;;0.70;0.43;;;8.60;1.00;;;;;;5082061;28;20048;-88
2024/01/03 10:08:18;;;;;;;0.20;0.20;;;8.60;1.00;;;;;;5063545;28;20162;-87
2024/01/03 10:10:45;;;;;;;0.40;0.28;;;8.50;40.00;;;;;;5081299;28;20052;-87
2024/01/03 10:13:24;;;;;;;0.20;0.10;;;9.30;39.70;;;;;;5081521;28;20051;-87
2024/01/03 10:15:50;;;;;;;0.52;0.52;;;8.60;47.70;;;;;;5044300;28;20052;-87
2024/01/03 10:18:17;;;;;;;5.15;0.80;;;8.60;45.50;;;;;;5063541;28;20048;-87
2024/01/03 10:20:43;;;;;;;0.73;0.65;;;9.30;1.00;;;;;;5063552;28;20048;-87
2024/01/03 10:23:10;;;;;;;0.10;0.10;;;8.60;99.90;;;;;;5062845;28;20095;-87
2024/01/03 10:25:37;;;;;;;0.00;0.00;;;8.50;99.90;;;;;;5085468;28;20409;-87
2024/01/03 10:28:05;;;;;;;0.35;0.32;;;8.40;32.60;;;;;;5093652;28;20106;-87
2024/01/03 10:30:31;;;;;;;0.80;0.55;;;8.50;1.00;;;;;;5092603;28;20506;-87
2024/01/03 10:33:02;;;;;;;0.40;0.40;;;8.50;99.90;;;;;;5086883;28;20083;-87
2024/01/03 10:35:32;;;;;;;0.20;0.20;;;8.40;99.90;;;;;;5080822;28;20047;-87
2024/01/03 10:38:01;;;;;;;1.00;0.93;;;8.40;1.00;;;;;;5081081;28;20123;-87
2024/01/03 10:40:29;;;;;;;0.00;0.00;;;8.40;1.00;;;;;;5081265;28;20405;-87
2024/01/03 10:42:55;;;;;;;0.00;0.00;;;8.40;1.00;;;;;;5062687;28;20533;-87
2024/01/03 10:45:21;;;;;;;0.00;0.00;;;8.50;23.60;;;;;;5069094;28;20577;-87
2024/01/03 10:47:47;;;;;;;0.00;0.00;;;8.50;1.00;;;;;;5062248;28;20138;-87
2024/01/03 10:50:13;;;;;;;0.10;0.10;;;8.50;9.20;;;;;;5080676;28;20327;-87
2024/01/03 10:52:42;;;;;;;1.45;0.98;;;8.50;99.90;;;;;;5062880;28;20399;-86
2024/01/03 10:55:22;;;;;;;1.30;0.45;;;8.70;30.00;;;;;;5095188;28;20375;-86
2024/01/03 10:58:06;;;;;;;4.78;0.25;;;8.70;99.90;;;;;;5090532;28;20535;-87
2024/01/03 11:00:57;;;;;;;0.00;0.00;;;8.80;99.90;;;;;;5092111;28;20062;-86
2024/01/03 11:03:34;;;;;;;0.28;0.20;;;9.00;99.90;;;;;;5097326;28;20243;-86
2024/01/03 11:06:08;;;;;;;0.40;0.25;;;9.00;54.70;;;;;;5089214;28;20043;-86
2024/01/03 11:08:45;;;;;;;0.00;0.00;;;9.10;99.90;;;;;;5087191;28;20953;-86
2024/01/03 11:11:18;;;;;;;0.10;0.10;;;9.00;99.90;;;;;;5089650;28;20052;-86
2024/01/03 11:13:44;;;;;;;0.13;0.13;;;9.00;99.90;;;;;;5057193;28;20444;-86
2024/01/03 11:16:35;;;;;;;0.00;0.00;;;9.00;46.60;;;;;;5083503;28;20044;-87
2024/01/03 11:19:01;;;;;;;1.80;0.90;;;9.10;99.90;;;;;;5092023;28;20047;-87
2024/01/03 11:21:28;;;;;;;0.22;0.20;;;9.20;1.00;;;;;;5088348;28;20056;-86
2024/01/03 11:23:54;;;;;;;0.00;0.00;;;9.10;88.20;;;;;;5079678;28;20052;-86
2024/01/03 11:26:51;;;;;;;0.52;0.22;;;9.10;1.00;;;;;;5078945;28;20052;-86
2024/01/03 11:29:35;;;;;;;0.03;0.03;;;9.10;1.00;;;;;;5060822;28;20059;-86
2024/01/03 11:32:05;;;;;;;0.40;0.17;;;9.00;99.90;;;;;;5090441;28;20072;-86
2024/01/03 11:34:37;;;;;;;6.03;0.75;;;9.00;1.00;;;;;;5083143;28;20048;-86
2024/01/03 11:37:12;;;;;;;0.63;0.55;;;9.00;91.90;;;;;;5091547;28;20047;-86
2024/01/03 11:39:42;;;;;;;0.20;0.20;;;9.10;99.90;;;;;;5098108;28;20044;-86
2024/01/03 11:42:08;;;;;;;0.32;0.20;;;9.20;99.90;;;;;;5086533;28;20035;-86
2024/01/03 11:44:34;;;;;;;7.28;1.05;;;9.30;99.90;;;;;;5081559;28;20459;-86
2024/01/03 11:47:02;;;;;;;0.15;0.15;;;9.40;22.10;;;;;;5088781;28;20043;-87
2024/01/03 11:49:28;;;;;;;1.55;0.60;;;9.40;1.00;;;;;;5081587;28;20047;-86
2024/01/03 11:51:57;;;;;;;2.28;1.55;;;9.50;99.90;;;;;;5104837;28;20043;-86
2024/01/03 11:54:26;;;;;;;0.20;0.10;;;9.60;99.90;;;;;;5083816;28;20079;-86
2024/01/03 11:56:56;;;;;;;0.75;0.43;;;9.60;99.90;;;;;;5063344;28;20410;-86
2024/01/03 11:59:22;;;;;;;0.05;0.05;;;9.60;99.90;;;;;;5082596;28;20066;-86
2024/01/03 12:01:56;;;;;;;21.05;2.80;;;9.60;99.90;;;;;;5091698;28;20048;-86
2024/01/03 12:04:21;;;;;;;0.00;0.00;;;9.60;99.90;;;;;;5049908;28;20401;-86
2024/01/03 12:06:47;;;;;;;7.22;0.25;;;9.60;99.90;;;;;;5080440;28;20052;-86
2024/01/03 12:09:14;;;;;;;0.10;0.10;;;9.80;1.00;;;;;;5088344;28;20064;-86
2024/01/03 12:11:40;;;;;;;0.52;0.38;;;9.80;99.90;;;;;;5061761;28;20055;-86
2024/01/03 12:14:06;;;;;;;1.08;0.80;;;9.90;99.90;;;;;;5063246;28;20056;-86
2024/01/03 12:16:32;;;;;;;0.40;0.40;;;11.00;99.90;;;;;;5082484;28;20548;-87
2024/01/03 12:18:57;;;;;;;0.25;0.25;;;10.00;53.50;;;;;;5088966;28;20078;-86
2024/01/03 12:21:23;;;;;;;0.20;0.20;;;10.00;1.00;;;;;;5086933;28;20047;-86
2024/01/03 12:23:59;;;;;;;0.00;0.00;;;10.00;99.90;;;;;;5070411;28;20055;-86
2024/01/03 12:26:26;;;;;;;1.25;0.20;;;10.00;99.90;;;;;;5101702;28;20049;-86
2024/01/03 12:28:58;;;;;;;4.90;1.75;;;10.00;99.90;;;;;;5095721;28;20161;-86
2024/01/03 12:31:24;;;;;;;0.20;0.20;;;9.80;99.90;;;;;;5101781;28;20051;-86
2024/01/03 12:33:50;;;;;;;9.40;1.92;;;9.70;1.00;;;;;;5065210;28;20117;-86
2024/01/03 12:36:15;;;;;;;1.20;0.65;;;9.70;99.90;;;;;;5063332;28;20044;-86
2024/01/03 12:38:41;;;;;;;0.25;0.25;;;9.80;1.00;;;;;;5104035;28;20043;-87
2024/01/03 12:41:07;;;;;;;0.20;0.10;;;9.70;14.60;;;;;;5070952;28;20036;-86
2024/01/03 12:43:35;;;;;;;0.28;0.28;;;9.80;1.00;;;;;;5092623;28;20078;-86
2024/01/03 12:46:04;;;;;;;0.90;0.30;;;9.70;99.90;;;;;;5088407;28;20114;-86
2024/01/03 12:48:30;;;;;;;0.30;0.30;;;9.60;99.90;;;;;;5092110;28;20055;-86
2024/01/03 12:50:55;;;;;;;1.55;1.27;;;9.70;1.00;;;;;;5091461;28;20052;-86
2024/01/03 12:53:21;;;;;;;7.47;1.45;;;9.70;45.50;;;;;;5091841;28;20046;-87
2024/01/03 12:55:47;;;;;;;0.10;0.10;;;9.80;99.90;;;;;;5083017;28;20181;-86
2024/01/03 12:58:12;;;;;;;0.57;0.30;;;9.80;9.20;;;;;;5091766;28;20483;-86